createdAt,value
2023-05-13T00:01:45.996Z,97529.16
2023-05-13T00:04:13.563Z,97520.59
2023-05-13T00:06:41.268Z,97525.28
2023-05-13T00:09:08.791Z,97522.94
2023-05-13T00:11:36.350Z,97516.72
2023-05-13T00:14:04.288Z,97522.94
2023-05-13T00:16:32.244Z,97523.72
2023-05-13T00:18:59.805Z,97524.50
2023-05-13T00:21:27.935Z,97516.38
2023-05-13T00:23:55.862Z,97524.91
2023-05-13T00:26:23.382Z,97518.72
2023-05-13T00:28:51.277Z,97525.31
2023-05-13T00:31:18.951Z,97521.44
2023-05-13T00:33:46.356Z,97507.13
2023-05-13T00:36:14.677Z,97516.41
2023-05-13T00:38:44.410Z,97512.53
2023-05-13T00:41:12.888Z,97522.19
2023-05-13T00:43:40.593Z,97510.56
2023-05-13T00:46:08.395Z,97509.38
2023-05-13T00:48:36.201Z,97515.97
2023-05-13T00:51:04.546Z,97514.41
2023-05-13T00:53:34.170Z,97516.72
2023-05-13T00:56:02.292Z,97496.56
2023-05-13T00:58:29.797Z,97501.97
2023-05-13T01:01:09.205Z,97498.06
2023-05-13T01:04:12.404Z,97496.81
2023-05-13T01:06:52.605Z,97501.13
2023-05-13T01:09:39.559Z,97491.38
2023-05-13T01:12:19.241Z,97491.00
2023-05-13T01:14:55.485Z,97485.94
2023-05-13T01:17:33.474Z,97492.50
2023-05-13T01:20:05.213Z,97489.75
2023-05-13T01:22:32.890Z,97482.00
2023-05-13T01:25:01.183Z,97487.03
2023-05-13T01:27:30.912Z,97493.63
2023-05-13T01:29:58.632Z,97489.75
2023-05-13T01:32:32.440Z,97489.34
2023-05-13T01:35:01.218Z,97485.06
2023-05-13T01:37:31.705Z,97487.38
2023-05-13T01:39:59.483Z,97496.28
2023-05-13T01:42:30.025Z,97493.16
2023-05-13T01:44:58.548Z,97495.13
2023-05-13T01:47:26.110Z,97495.88
2023-05-13T01:49:53.725Z,97487.31
2023-05-13T01:52:21.324Z,97490.41
2023-05-13T01:54:49.147Z,97496.19
2023-05-13T01:57:16.886Z,97502.47
2023-05-13T01:59:44.486Z,97492.09
2023-05-13T02:02:12.783Z,97500.28
2023-05-13T02:04:40.294Z,97498.34
2023-05-13T02:07:07.834Z,97478.19
2023-05-13T02:09:35.425Z,97493.72
2023-05-13T02:12:06.192Z,97487.09
2023-05-13T02:14:33.687Z,97470.81
2023-05-13T02:17:03.611Z,97458.78
2023-05-13T02:19:31.292Z,97468.41
2023-05-13T02:21:58.837Z,97464.91
2023-05-13T02:24:26.490Z,97459.81
2023-05-13T02:26:54.748Z,97463.22
2023-05-13T02:29:22.269Z,97463.56
2023-05-13T02:31:49.832Z,97456.47
2023-05-13T02:34:17.865Z,97452.09
2023-05-13T02:36:45.501Z,97450.84
2023-05-13T02:39:13.232Z,97445.63
2023-05-13T02:41:40.785Z,97445.53
2023-05-13T02:44:08.492Z,97445.34
2023-05-13T02:46:36.128Z,97447.97
2023-05-13T02:49:03.863Z,97446.59
2023-05-13T02:51:32.279Z,97444.13
2023-05-13T02:53:59.890Z,97432.25
2023-05-13T02:56:28.044Z,97444.16
2023-05-13T02:58:56.392Z,97435.72
2023-05-13T03:01:24.065Z,97441.03
2023-05-13T03:03:51.558Z,97440.31
2023-05-13T03:06:19.173Z,97447.53
2023-05-13T03:08:46.726Z,97439.25
2023-05-13T03:11:14.246Z,97436.41
2023-05-13T03:13:41.797Z,97437.72
2023-05-13T03:16:10.224Z,97421.59
2023-05-13T03:18:37.717Z,97433.78
2023-05-13T03:21:05.283Z,97432.34
2023-05-13T03:23:34.023Z,97426.59
2023-05-13T03:26:02.487Z,97423.91
2023-05-13T03:28:31.586Z,97413.06
2023-05-13T03:30:59.197Z,97415.41
2023-05-13T03:33:30.065Z,97419.28
2023-05-13T03:35:57.956Z,97419.63
2023-05-13T03:38:29.970Z,97421.50
2023-05-13T03:40:57.892Z,97421.34
2023-05-13T03:43:26.358Z,97414.03
2023-05-13T03:45:58.755Z,97404.91
2023-05-13T03:48:27.829Z,97411.97
2023-05-13T03:50:58.114Z,97413.16
2023-05-13T03:53:25.653Z,97412.09
2023-05-13T03:55:54.893Z,97404.38
2023-05-13T03:58:23.085Z,97409.50
2023-05-13T04:00:50.820Z,97406.28
2023-05-13T04:03:19.020Z,97405.97
2023-05-13T04:05:47.481Z,97404.53
2023-05-13T04:08:15.550Z,97408.00
2023-05-13T04:10:43.996Z,97409.03
2023-05-13T04:13:11.805Z,97408.59
2023-05-13T04:15:39.324Z,97402.66
2023-05-13T04:18:07.091Z,97403.34
2023-05-13T04:20:35.273Z,97402.53
2023-05-13T04:23:02.801Z,97405.38
2023-05-13T04:25:30.317Z,97406.06
2023-05-13T04:27:58.050Z,97399.41
2023-05-13T04:30:30.776Z,97396.66
2023-05-13T04:32:58.248Z,97404.94
2023-05-13T04:35:26.432Z,97393.41
2023-05-13T04:37:58.149Z,97388.72
2023-05-13T04:40:26.775Z,97381.13
2023-05-13T04:42:56.555Z,97384.06
2023-05-13T04:45:28.922Z,97384.06
2023-05-13T04:47:58.366Z,97386.28
2023-05-13T04:50:26.590Z,97384.25
2023-05-13T04:52:55.099Z,97373.13
2023-05-13T04:55:23.758Z,97375.06
2023-05-13T04:57:51.808Z,97375.16
2023-05-13T05:00:19.514Z,97375.53
2023-05-13T05:02:49.519Z,97370.56
2023-05-13T05:05:18.567Z,97371.75
2023-05-13T05:07:46.980Z,97366.09
2023-05-13T05:10:15.856Z,97363.09
2023-05-13T05:12:49.149Z,97361.41
2023-05-13T05:15:16.737Z,97371.34
2023-05-13T05:17:47.992Z,97360.03
2023-05-13T05:20:17.192Z,97367.53
2023-05-13T05:22:48.725Z,97357.31
2023-05-13T05:25:18.082Z,97352.09
2023-05-13T05:27:45.565Z,97354.75
2023-05-13T05:30:13.740Z,97353.50
2023-05-13T05:32:41.724Z,97360.13
2023-05-13T05:35:09.760Z,97355.28
2023-05-13T05:37:37.362Z,97351.28
2023-05-13T05:40:06.228Z,97351.50
2023-05-13T05:42:38.526Z,97357.03
2023-05-13T05:45:06.698Z,97340.69
2023-05-13T05:47:34.405Z,97345.72
2023-05-13T05:50:02.358Z,97339.13
2023-05-13T05:52:30.875Z,97339.03
2023-05-13T05:54:58.976Z,97340.75
2023-05-13T05:57:26.403Z,97336.44
2023-05-13T05:59:54.011Z,97333.31
2023-05-13T06:02:21.661Z,97334.78
2023-05-13T06:04:51.924Z,97332.34
2023-05-13T06:07:20.732Z,97329.44
2023-05-13T06:09:48.668Z,97343.94
2023-05-13T06:12:16.269Z,97335.34
2023-05-13T06:14:44.006Z,97332.19
2023-05-13T06:17:11.491Z,97329.25
2023-05-13T06:19:38.936Z,97335.72
2023-05-13T06:22:06.457Z,97328.44
2023-05-13T06:24:36.377Z,97331.41
2023-05-13T06:27:04.183Z,97329.97
2023-05-13T06:29:31.798Z,97325.66
2023-05-13T06:31:59.376Z,97319.00
2023-05-13T06:34:26.920Z,97333.78
2023-05-13T06:36:54.837Z,97325.09
2023-05-13T06:39:22.434Z,97328.41
2023-05-13T06:41:50.287Z,97323.97
2023-05-13T06:44:17.796Z,97325.56
2023-05-13T06:46:47.636Z,97322.06
2023-05-13T06:49:15.151Z,97323.28
2023-05-13T06:51:42.742Z,97313.34
2023-05-13T06:54:10.237Z,97317.94
2023-05-13T06:56:37.723Z,97317.34
2023-05-13T06:59:05.255Z,97312.00
2023-05-13T07:01:32.797Z,97324.38
2023-05-13T07:04:00.508Z,97315.94
2023-05-13T07:06:28.037Z,97315.78
2023-05-13T07:08:55.560Z,97309.31
2023-05-13T07:11:22.996Z,97309.50
2023-05-13T07:13:50.633Z,97307.72
2023-05-13T07:16:18.281Z,97308.34
2023-05-13T07:18:46.015Z,97304.75
2023-05-13T07:21:15.847Z,97315.63
2023-05-13T07:23:44.548Z,97300.84
2023-05-13T07:26:12.559Z,97310.72
2023-05-13T07:28:40.177Z,97299.94
2023-05-13T07:31:07.978Z,97317.59
2023-05-13T07:33:36.565Z,97317.66
2023-05-13T07:36:04.293Z,97294.41
2023-05-13T07:38:31.811Z,97312.38
2023-05-13T07:40:59.308Z,97295.84
2023-05-13T07:43:28.141Z,97297.47
2023-05-13T07:45:55.935Z,97302.22
2023-05-13T07:48:25.607Z,97304.09
2023-05-13T07:50:53.076Z,97301.78
2023-05-13T07:53:21.832Z,97304.25
2023-05-13T07:55:49.413Z,97287.88
2023-05-13T07:58:18.839Z,97291.09
2023-05-13T08:00:46.374Z,97299.06
2023-05-13T08:03:13.927Z,97294.03
2023-05-13T08:05:41.674Z,97293.28
2023-05-13T08:08:09.204Z,97297.84
2023-05-13T08:10:36.719Z,97290.00
2023-05-13T08:13:04.135Z,97285.66
2023-05-13T08:15:31.632Z,97286.88
2023-05-13T08:17:59.059Z,97293.53
2023-05-13T08:20:30.364Z,97291.06
2023-05-13T08:22:58.658Z,97292.72
2023-05-13T08:25:26.492Z,97291.41
2023-05-13T08:27:54.199Z,97293.53
2023-05-13T08:30:22.145Z,97293.00
2023-05-13T08:32:49.721Z,97284.94
2023-05-13T08:35:17.265Z,97279.31
2023-05-13T08:37:44.773Z,97276.78
2023-05-13T08:40:12.568Z,97291.50
2023-05-13T08:42:41.331Z,97289.59
2023-05-13T08:45:10.440Z,97279.88
2023-05-13T08:47:56.894Z,97276.84
2023-05-13T08:50:26.004Z,97279.69
2023-05-13T08:52:56.664Z,97275.41
2023-05-13T08:55:27.440Z,97285.59
2023-05-13T08:57:55.264Z,97284.16
2023-05-13T09:00:22.772Z,97275.03
2023-05-13T09:02:51.504Z,97277.78
2023-05-13T09:05:20.556Z,97279.59
2023-05-13T09:07:48.275Z,97272.56
2023-05-13T09:10:18.033Z,97282.19
2023-05-13T09:12:49.374Z,97287.03
2023-05-13T09:15:22.456Z,97286.16
2023-05-13T09:18:02.594Z,97275.88
2023-05-13T09:20:31.322Z,97282.06
2023-05-13T09:23:20.897Z,97296.75
2023-05-13T09:25:48.504Z,97273.69
2023-05-13T09:28:16.153Z,97271.50
2023-05-13T09:30:46.832Z,97273.41
2023-05-13T09:33:16.545Z,97274.84
2023-05-13T09:35:49.173Z,97286.72
2023-05-13T09:38:22.078Z,97279.88
2023-05-13T09:41:00.969Z,97276.16
2023-05-13T09:43:32.739Z,97269.50
2023-05-13T09:46:05.241Z,97267.78
2023-05-13T09:48:33.869Z,97271.00
2023-05-13T09:51:01.751Z,97256.91
2023-05-13T09:53:29.319Z,97253.31
2023-05-13T09:55:58.133Z,97275.19
2023-05-13T09:58:28.843Z,97270.19
2023-05-13T10:00:57.111Z,97265.25
2023-05-13T10:03:25.125Z,97277.31
2023-05-13T10:05:53.949Z,97267.38
2023-05-13T10:08:22.656Z,97268.47
2023-05-13T10:10:53.596Z,97272.09
2023-05-13T10:13:24.706Z,97272.97
2023-05-13T10:15:54.574Z,97273.25
2023-05-13T10:18:24.350Z,97272.47
2023-05-13T10:20:55.167Z,97264.72
2023-05-13T10:23:24.879Z,97269.81
2023-05-13T10:25:54.523Z,97259.56
2023-05-13T10:28:22.712Z,97262.31
2023-05-13T10:30:51.691Z,97266.91
2023-05-13T10:33:20.047Z,97270.16
2023-05-13T10:36:06.255Z,97271.47
2023-05-13T10:38:58.482Z,97262.13
2023-05-13T10:41:54.767Z,97263.25
2023-05-13T10:44:24.129Z,97271.09
2023-05-13T10:46:51.832Z,97269.13
2023-05-13T10:49:19.532Z,97273.41
2023-05-13T10:51:49.531Z,97276.16
2023-05-13T10:54:21.512Z,97273.09
2023-05-13T10:56:59.541Z,97273.41
2023-05-13T10:59:30.847Z,97254.59
2023-05-13T11:02:02.342Z,97260.69
2023-05-13T11:04:29.993Z,97258.59
2023-05-13T11:07:16.890Z,97265.59
2023-05-13T11:09:50.592Z,97260.28
2023-05-13T11:12:18.120Z,97258.72
2023-05-13T11:14:46.140Z,97261.47
2023-05-13T11:17:14.427Z,97260.56
2023-05-13T11:19:50.572Z,97264.69
2023-05-13T11:22:24.480Z,97265.13
2023-05-13T11:25:09.916Z,97268.66
2023-05-13T11:27:41.901Z,97259.81
2023-05-13T11:30:24.859Z,97267.13
2023-05-13T11:32:56.404Z,97263.00
2023-05-13T11:35:28.166Z,97259.34
2023-05-13T11:37:58.389Z,97256.84
2023-05-13T11:40:35.750Z,97261.00
2023-05-13T11:43:05.391Z,97264.34
2023-05-13T11:45:34.129Z,97259.09
2023-05-13T11:48:22.500Z,97263.09
2023-05-13T11:50:51.170Z,97265.63
2023-05-13T11:53:25.342Z,97247.94
2023-05-13T11:55:52.966Z,97246.69
2023-05-13T11:58:21.773Z,97249.72
2023-05-13T12:00:49.293Z,97250.63
2023-05-13T12:03:16.961Z,97244.50
2023-05-13T12:05:44.898Z,97243.88
2023-05-13T12:08:12.469Z,97236.97
2023-05-13T12:10:46.145Z,97253.38
2023-05-13T12:13:14.152Z,97255.31
2023-05-13T12:15:42.509Z,97250.41
2023-05-13T12:18:10.220Z,97245.34
2023-05-13T12:20:38.605Z,97257.25
2023-05-13T12:23:06.770Z,97247.59
2023-05-13T12:25:37.560Z,97245.19
2023-05-13T12:28:20.291Z,97233.22
2023-05-13T12:31:04.005Z,97246.44
2023-05-13T12:33:32.370Z,97250.00
2023-05-13T12:36:20.462Z,97239.09
2023-05-13T12:39:05.610Z,97230.50
2023-05-13T12:41:35.380Z,97243.50
2023-05-13T12:44:10.094Z,97229.25
2023-05-13T12:46:38.164Z,97227.84
2023-05-13T12:49:06.305Z,97224.91
2023-05-13T12:51:34.497Z,97226.25
2023-05-13T12:54:02.173Z,97224.97
2023-05-13T12:56:29.869Z,97229.56
2023-05-13T12:58:58.051Z,97228.16
2023-05-13T13:01:25.705Z,97228.28
2023-05-13T13:03:53.295Z,97229.91
2023-05-13T13:06:21.051Z,97224.25
2023-05-13T13:08:48.619Z,97224.25
2023-05-13T13:11:19.109Z,97233.66
2023-05-13T13:13:47.096Z,97236.56
2023-05-13T13:16:15.041Z,97230.53
2023-05-13T13:18:43.274Z,97234.50
2023-05-13T13:21:11.105Z,97235.38
2023-05-13T13:23:38.709Z,97238.25
2023-05-13T13:26:06.344Z,97238.34
2023-05-13T13:28:33.951Z,97225.22
2023-05-13T13:31:01.578Z,97234.00
2023-05-13T13:33:29.079Z,97241.03
2023-05-13T13:35:56.556Z,97233.47
2023-05-13T13:38:24.134Z,97234.50
2023-05-13T13:40:51.600Z,97232.19
2023-05-13T13:43:19.832Z,97234.81
2023-05-13T13:45:47.414Z,97225.63
2023-05-13T13:48:14.985Z,97240.75
2023-05-13T13:50:42.526Z,97235.91
2023-05-13T13:53:10.047Z,97228.47
2023-05-13T13:55:37.585Z,97234.06
2023-05-13T13:58:05.266Z,97227.03
2023-05-13T14:00:32.756Z,97225.72
2023-05-13T14:03:01.846Z,97230.53
2023-05-13T14:05:29.552Z,97229.41
2023-05-13T14:07:57.130Z,97232.63
2023-05-13T14:10:24.636Z,97236.44
2023-05-13T14:12:52.296Z,97243.44
2023-05-13T14:15:19.757Z,97232.56
2023-05-13T14:17:47.326Z,97242.13
2023-05-13T14:20:14.798Z,97236.34
2023-05-13T14:22:42.268Z,97239.75
2023-05-13T14:25:10.240Z,97245.22
2023-05-13T14:27:37.772Z,97237.03
2023-05-13T14:30:07.086Z,97249.19
2023-05-13T14:32:34.988Z,97254.28
2023-05-13T14:35:02.499Z,97250.25
2023-05-13T14:37:31.200Z,97248.97
2023-05-13T14:39:59.349Z,97255.59
2023-05-13T14:42:26.869Z,97256.56
2023-05-13T14:44:54.332Z,97255.19
2023-05-13T14:47:21.840Z,97262.44
2023-05-13T14:49:49.256Z,97274.72
2023-05-13T14:52:16.670Z,97269.97
2023-05-13T14:54:44.275Z,97265.03
2023-05-13T14:57:11.855Z,97269.81
2023-05-13T14:59:39.401Z,97274.84
2023-05-13T15:02:06.998Z,97275.00
2023-05-13T15:04:34.467Z,97287.69
2023-05-13T15:07:03.628Z,97290.72
2023-05-13T15:09:31.248Z,97283.19
2023-05-13T15:11:58.690Z,97290.72
2023-05-13T15:14:26.466Z,97303.31
2023-05-13T15:16:54.061Z,97297.25
2023-05-13T15:19:21.636Z,97287.84
2023-05-13T15:21:49.078Z,97294.78
2023-05-13T15:24:16.580Z,97294.06
2023-05-13T15:26:44.116Z,97301.13
2023-05-13T15:29:11.618Z,97294.78
2023-05-13T15:31:39.040Z,97304.91
2023-05-13T15:34:06.510Z,97294.38
2023-05-13T15:36:37.027Z,97324.34
2023-05-13T15:39:04.798Z,97303.53
2023-05-13T15:41:32.362Z,97300.91
2023-05-13T15:43:59.870Z,97293.84
2023-05-13T15:46:27.510Z,97312.47
2023-05-13T15:48:55.067Z,97332.34
2023-05-13T15:51:22.661Z,97314.41
2023-05-13T15:53:50.104Z,97314.44
2023-05-13T15:56:17.711Z,97321.84
2023-05-13T15:58:45.282Z,97332.75
2023-05-13T16:01:12.961Z,97327.41
2023-05-13T16:03:40.400Z,97323.50
2023-05-13T16:06:07.959Z,97333.16
2023-05-13T16:08:35.683Z,97324.00
2023-05-13T16:11:04.007Z,97341.09
2023-05-13T16:13:31.532Z,97336.91
2023-05-13T16:15:59.035Z,97340.78
2023-05-13T16:18:27.044Z,97335.69
2023-05-13T16:20:55.192Z,97347.28
2023-05-13T16:23:22.709Z,97341.50
2023-05-13T16:25:50.319Z,97348.13
2023-05-13T16:28:17.734Z,97360.88
2023-05-13T16:30:45.269Z,97353.16
2023-05-13T16:33:15.010Z,97353.97
2023-05-13T16:35:42.471Z,97356.28
2023-05-13T16:38:10.044Z,97355.91
2023-05-13T16:40:37.530Z,97363.66
2023-05-13T16:43:05.054Z,97360.16
2023-05-13T16:45:32.505Z,97367.50
2023-05-13T16:48:00.094Z,97372.16
2023-05-13T16:50:27.875Z,97353.97
2023-05-13T16:52:55.402Z,97369.44
2023-05-13T16:55:22.964Z,97364.03
2023-05-13T16:57:50.506Z,97364.00
2023-05-13T17:00:18.231Z,97367.91
2023-05-13T17:02:45.976Z,97373.22
2023-05-13T17:05:13.423Z,97368.19
2023-05-13T17:07:40.985Z,97361.59
2023-05-13T17:10:08.978Z,97358.53
2023-05-13T17:12:36.526Z,97360.47
2023-05-13T17:15:04.455Z,97365.09
2023-05-13T17:17:32.122Z,97370.81
2023-05-13T17:19:59.671Z,97369.25
2023-05-13T17:22:27.300Z,97381.59
2023-05-13T17:24:54.746Z,97362.63
2023-05-13T17:27:22.242Z,97366.84
2023-05-13T17:29:49.753Z,97364.91
2023-05-13T17:32:17.349Z,97377.78
2023-05-13T17:34:44.868Z,97376.13
2023-05-13T17:37:12.483Z,97372.34
2023-05-13T17:39:39.990Z,97379.66
2023-05-13T17:42:07.620Z,97385.72
2023-05-13T17:44:35.142Z,97376.06
2023-05-13T17:47:02.630Z,97375.66
2023-05-13T17:49:30.192Z,97382.94
2023-05-13T17:51:58.736Z,97376.22
2023-05-13T17:54:26.313Z,97376.47
2023-05-13T17:56:53.871Z,97376.03
2023-05-13T17:59:22.948Z,97368.06
2023-05-13T18:01:50.452Z,97370.38
2023-05-13T18:04:17.964Z,97358.03
2023-05-13T18:06:45.692Z,97369.84
2023-05-13T18:09:13.218Z,97371.66
2023-05-13T18:11:40.836Z,97366.59
2023-05-13T18:14:08.501Z,97367.72
2023-05-13T18:16:36.311Z,97375.06
2023-05-13T18:19:04.027Z,97366.03
2023-05-13T18:21:31.972Z,97359.22
2023-05-13T18:23:59.515Z,97364.66
2023-05-13T18:26:27.240Z,97373.38
2023-05-13T18:28:54.707Z,97376.75
2023-05-13T18:31:22.209Z,97376.47
2023-05-13T18:33:49.754Z,97372.91
2023-05-13T18:36:20.189Z,97362.81
2023-05-13T18:38:48.281Z,97366.66
2023-05-13T18:41:16.632Z,97368.91
2023-05-13T18:43:44.056Z,97363.78
2023-05-13T18:46:12.114Z,97359.09
2023-05-13T18:48:39.831Z,97355.94
2023-05-13T18:51:07.328Z,97367.44
2023-05-13T18:53:34.850Z,97357.41
2023-05-13T18:56:03.567Z,97355.25
2023-05-13T18:58:31.076Z,97357.47
2023-05-13T19:00:58.585Z,97357.78
2023-05-13T19:03:27.209Z,97358.59
2023-05-13T19:05:55.036Z,97366.16
2023-05-13T19:08:22.904Z,97358.88
2023-05-13T19:10:50.517Z,97362.31
2023-05-13T19:13:20.105Z,97354.16
2023-05-13T19:15:47.552Z,97350.63
2023-05-13T19:18:15.381Z,97366.78
2023-05-13T19:20:43.952Z,97363.91
2023-05-13T19:23:11.539Z,97351.06
2023-05-13T19:25:42.526Z,97355.88
2023-05-13T19:28:11.550Z,97357.53
2023-05-13T19:30:39.684Z,97358.53
2023-05-13T19:33:08.324Z,97335.56
2023-05-13T19:35:36.753Z,97354.06
2023-05-13T19:38:04.205Z,97353.09
2023-05-13T19:40:31.734Z,97354.59
2023-05-13T19:42:59.253Z,97353.72
2023-05-13T19:45:26.826Z,97342.31
2023-05-13T19:47:54.358Z,97351.16
2023-05-13T19:50:22.161Z,97350.94
2023-05-13T19:52:49.866Z,97354.22
2023-05-13T19:55:17.391Z,97347.69
2023-05-13T19:57:44.874Z,97350.84
2023-05-13T20:00:13.155Z,97354.44
2023-05-13T20:02:40.971Z,97344.66
2023-05-13T20:05:09.127Z,97343.50
2023-05-13T20:07:36.654Z,97343.09
2023-05-13T20:10:04.756Z,97342.25
2023-05-13T20:12:32.693Z,97341.09
2023-05-13T20:15:00.700Z,97327.03
2023-05-13T20:17:28.339Z,97324.28
2023-05-13T20:19:56.246Z,97336.97
2023-05-13T20:22:23.749Z,97336.91
2023-05-13T20:24:52.153Z,97335.63
2023-05-13T20:27:19.524Z,97329.59
2023-05-13T20:29:48.268Z,97334.88
2023-05-13T20:32:21.507Z,97340.03
2023-05-13T20:34:49.002Z,97329.66
2023-05-13T20:37:17.185Z,97335.47
2023-05-13T20:39:44.843Z,97336.16
2023-05-13T20:42:12.352Z,97332.94
2023-05-13T20:44:40.041Z,97330.38
2023-05-13T20:47:08.053Z,97319.63
2023-05-13T20:49:35.543Z,97330.69
2023-05-13T20:52:04.858Z,97332.72
2023-05-13T20:54:33.935Z,97330.69
2023-05-13T20:57:03.301Z,97336.06
2023-05-13T20:59:31.473Z,97334.03
2023-05-13T21:01:59.364Z,97337.75
2023-05-13T21:04:27.062Z,97337.09
2023-05-13T21:06:54.530Z,97329.78
2023-05-13T21:09:22.066Z,97339.28
2023-05-13T21:11:49.575Z,97335.41
2023-05-13T21:14:17.046Z,97331.16
2023-05-13T21:16:44.587Z,97339.13
2023-05-13T21:19:25.251Z,97346.41
2023-05-13T21:21:52.682Z,97337.84
2023-05-13T21:24:21.161Z,97344.16
2023-05-13T21:26:49.974Z,97337.75
2023-05-13T21:29:18.879Z,97342.84
2023-05-13T21:31:47.711Z,97338.22
2023-05-13T21:34:15.239Z,97338.22
2023-05-13T21:36:42.868Z,97321.47
2023-05-13T21:39:10.735Z,97326.13
2023-05-13T21:41:38.428Z,97331.34
2023-05-13T21:44:06.612Z,97339.31
2023-05-13T21:46:34.205Z,97328.72
2023-05-13T21:49:01.945Z,97337.19
2023-05-13T21:51:29.673Z,97341.06
2023-05-13T21:53:57.155Z,97340.34
2023-05-13T21:56:24.695Z,97334.66
2023-05-13T21:58:52.196Z,97333.84
2023-05-13T22:01:19.786Z,97338.28
2023-05-13T22:03:47.297Z,97333.66
2023-05-13T22:06:14.959Z,97334.31
2023-05-13T22:08:42.426Z,97341.38
2023-05-13T22:11:10.021Z,97346.31
2023-05-13T22:13:38.392Z,97345.44
2023-05-13T22:16:05.986Z,97345.66
2023-05-13T22:18:33.731Z,97346.84
2023-05-13T22:21:01.428Z,97346.00
2023-05-13T22:23:29.032Z,97348.16
2023-05-13T22:25:56.384Z,97345.72
2023-05-13T22:28:23.848Z,97346.50
2023-05-13T22:30:52.314Z,97348.19
2023-05-13T22:33:19.934Z,97352.19
2023-05-13T22:35:47.578Z,97346.16
2023-05-13T22:38:15.194Z,97358.09
2023-05-13T22:40:42.919Z,97338.69
2023-05-13T22:43:10.357Z,97344.84
2023-05-13T22:45:38.153Z,97352.13
2023-05-13T22:48:05.914Z,97350.34
2023-05-13T22:50:33.557Z,97351.94
2023-05-13T22:53:00.996Z,97352.00
2023-05-13T22:55:28.471Z,97348.56
2023-05-13T22:57:56.064Z,97347.00
2023-05-13T23:00:23.700Z,97351.94
2023-05-13T23:02:51.482Z,97363.53
2023-05-13T23:05:19.437Z,97355.41
2023-05-13T23:07:47.206Z,97351.41
2023-05-13T23:10:14.760Z,97353.41
2023-05-13T23:12:42.428Z,97350.41
2023-05-13T23:15:11.920Z,97364.78
2023-05-13T23:17:39.527Z,97359.38
2023-05-13T23:20:07.796Z,97359.91
2023-05-13T23:22:35.575Z,97359.31
2023-05-13T23:25:04.018Z,97362.03
2023-05-13T23:27:35.010Z,97365.53
2023-05-13T23:30:02.536Z,97371.31
2023-05-13T23:32:31.631Z,97367.38
2023-05-13T23:34:59.215Z,97363.97
2023-05-13T23:37:26.679Z,97369.28
2023-05-13T23:39:54.120Z,97371.69
2023-05-13T23:42:22.077Z,97379.59
2023-05-13T23:44:49.573Z,97376.16
2023-05-13T23:47:17.187Z,97355.66
2023-05-13T23:49:44.680Z,97387.50
2023-05-13T23:52:12.411Z,97382.56
2023-05-13T23:54:39.856Z,97393.34
2023-05-13T23:57:07.293Z,97389.28
2023-05-13T23:59:34.865Z,97396.88
